createdAt,value
2018-04-22T00:00:18.215Z,1016.09
2018-04-22T00:01:18.148Z,1016.09
2018-04-22T00:02:18.097Z,1016.09
2018-04-22T00:03:18.031Z,1016.08
2018-04-22T00:04:17.967Z,1016.07
2018-04-22T00:05:17.903Z,1016.06
2018-04-22T00:06:17.842Z,1016.09
2018-04-22T00:07:17.779Z,1016.05
2018-04-22T00:08:17.721Z,1016.10
2018-04-22T00:09:17.665Z,1016.07
2018-04-22T00:10:18.545Z,1016.05
2018-04-22T00:11:17.536Z,1016.06
2018-04-22T00:12:17.472Z,1016.06
2018-04-22T00:13:17.410Z,1016.04
2018-04-22T00:14:17.348Z,1016.06
2018-04-22T00:15:17.284Z,1016.04
2018-04-22T00:16:17.226Z,1016.02
2018-04-22T00:17:17.171Z,1016.00
2018-04-22T00:18:17.098Z,1016.03
2018-04-22T00:19:17.037Z,1016.02
2018-04-22T00:20:16.980Z,1016.02
2018-04-22T00:21:16.918Z,1016.02
2018-04-22T00:22:16.860Z,1016.01
2018-04-22T00:23:16.794Z,1016.01
2018-04-22T00:24:16.731Z,1016.00
2018-04-22T00:25:16.668Z,1015.99
2018-04-22T00:26:16.608Z,1016.01
2018-04-22T00:27:16.546Z,1015.96
2018-04-22T00:28:16.485Z,1015.98
2018-04-22T00:29:16.430Z,1016.00
2018-04-22T00:30:16.361Z,1015.97
2018-04-22T00:31:16.298Z,1015.96
2018-04-22T00:32:16.235Z,1016.01
2018-04-22T00:33:16.172Z,1015.95
2018-04-22T00:34:16.113Z,1015.95
2018-04-22T00:35:16.048Z,1015.97
2018-04-22T00:36:15.989Z,1015.99
2018-04-22T00:37:15.927Z,1015.98
2018-04-22T00:38:15.869Z,1015.98
2018-04-22T00:39:15.800Z,1015.98
2018-04-22T00:40:15.745Z,1015.99
2018-04-22T00:41:15.677Z,1015.96
2018-04-22T00:42:15.617Z,1015.95
2018-04-22T00:43:15.555Z,1015.93
2018-04-22T00:44:15.489Z,1015.92
2018-04-22T00:45:15.427Z,1015.92
2018-04-22T00:46:15.380Z,1015.93
2018-04-22T00:47:15.300Z,1015.91
2018-04-22T00:48:15.243Z,1015.96
2018-04-22T00:49:15.184Z,1015.93
2018-04-22T00:50:15.118Z,1015.93
2018-04-22T00:51:15.055Z,1015.95
2018-04-22T00:52:14.994Z,1015.94
2018-04-22T00:53:14.931Z,1015.96
2018-04-22T00:54:14.875Z,1016.01
2018-04-22T00:55:14.807Z,1015.97
2018-04-22T00:56:14.743Z,1015.96
2018-04-22T00:57:14.681Z,1015.97
2018-04-22T00:58:14.620Z,1015.96
2018-04-22T00:59:14.558Z,1016.02
2018-04-22T01:00:14.505Z,1016.02
2018-04-22T01:01:14.435Z,1016.04
2018-04-22T01:02:14.374Z,1015.99
2018-04-22T01:03:14.314Z,1015.97
2018-04-22T01:04:14.245Z,1015.95
2018-04-22T01:05:14.184Z,1015.95
2018-04-22T01:06:14.124Z,1015.98
2018-04-22T01:07:14.061Z,1015.95
2018-04-22T01:08:14.001Z,1015.93
2018-04-22T01:09:13.936Z,1015.96
2018-04-22T01:10:13.874Z,1015.97
2018-04-22T01:11:13.811Z,1015.89
2018-04-22T01:12:13.752Z,1015.90
2018-04-22T01:13:13.689Z,1015.91
2018-04-22T01:14:13.627Z,1015.92
2018-04-22T01:15:13.562Z,1015.90
2018-04-22T01:16:13.500Z,1015.87
2018-04-22T01:17:13.436Z,1015.90
2018-04-22T01:18:13.374Z,1015.86
2018-04-22T01:19:13.310Z,1015.87
2018-04-22T01:20:13.252Z,1015.92
2018-04-22T01:21:13.189Z,1015.86
2018-04-22T01:22:13.122Z,1015.86
2018-04-22T01:23:13.064Z,1015.88
2018-04-22T01:24:13.002Z,1015.85
2018-04-22T01:25:12.940Z,1015.89
2018-04-22T01:26:12.880Z,1015.84
2018-04-22T01:27:12.814Z,1015.81
2018-04-22T01:28:12.750Z,1015.86
2018-04-22T01:29:12.690Z,1015.82
2018-04-22T01:30:12.628Z,1015.84
2018-04-22T01:31:12.565Z,1015.82
2018-04-22T01:32:12.505Z,1015.82
2018-04-22T01:33:12.444Z,1015.83
2018-04-22T01:34:12.384Z,1015.90
2018-04-22T01:35:12.317Z,1015.81
2018-04-22T01:36:12.251Z,1015.86
2018-04-22T01:37:12.191Z,1015.78
2018-04-22T01:38:12.153Z,1015.79
2018-04-22T01:39:12.066Z,1015.83
2018-04-22T01:40:12.005Z,1015.81
2018-04-22T01:41:11.944Z,1015.76
2018-04-22T01:42:11.878Z,1015.72
2018-04-22T01:43:11.824Z,1015.78
2018-04-22T01:44:11.760Z,1015.77
2018-04-22T01:45:11.693Z,1015.78
2018-04-22T01:46:11.639Z,1015.77
2018-04-22T01:47:11.572Z,1015.76
2018-04-22T01:48:11.503Z,1015.78
2018-04-22T01:49:11.448Z,1015.73
2018-04-22T01:50:11.382Z,1015.77
2018-04-22T01:51:11.314Z,1015.79
2018-04-22T01:52:11.260Z,1015.77
2018-04-22T01:53:11.193Z,1015.74
2018-04-22T01:54:11.128Z,1015.77
2018-04-22T01:55:11.066Z,1015.75
2018-04-22T01:56:11.004Z,1015.75
2018-04-22T01:57:10.942Z,1015.76
2018-04-22T01:58:10.879Z,1015.77
2018-04-22T01:59:10.814Z,1015.79
2018-04-22T02:00:10.751Z,1015.74
2018-04-22T02:01:10.689Z,1015.69
2018-04-22T02:02:10.625Z,1015.68
2018-04-22T02:03:10.561Z,1015.70
2018-04-22T02:04:10.501Z,1015.69
2018-04-22T02:05:10.439Z,1015.67
2018-04-22T02:06:10.377Z,1015.67
2018-04-22T02:07:10.313Z,1015.65
2018-04-22T02:08:10.248Z,1015.64
2018-04-22T02:09:10.186Z,1015.62
2018-04-22T02:10:10.136Z,1015.62
2018-04-22T02:11:10.063Z,1015.60
2018-04-22T02:12:10.001Z,1015.67
2018-04-22T02:13:09.937Z,1015.67
2018-04-22T02:14:09.872Z,1015.61
2018-04-22T02:15:09.808Z,1015.59
2018-04-22T02:16:09.748Z,1015.56
2018-04-22T02:17:09.684Z,1015.58
2018-04-22T02:18:09.620Z,1015.52
2018-04-22T02:19:09.558Z,1015.54
2018-04-22T02:20:09.495Z,1015.50
2018-04-22T02:21:09.433Z,1015.50
2018-04-22T02:22:09.370Z,1015.53
2018-04-22T02:23:09.306Z,1015.52
2018-04-22T02:24:09.245Z,1015.52
2018-04-22T02:25:09.186Z,1015.54
2018-04-22T02:26:09.117Z,1015.53
2018-04-22T02:27:09.101Z,1015.54
2018-04-22T02:28:08.997Z,1015.52
2018-04-22T02:29:08.930Z,1015.53
2018-04-22T02:30:08.868Z,1015.49
2018-04-22T02:31:08.807Z,1015.45
2018-04-22T02:32:08.740Z,1015.43
2018-04-22T02:33:08.702Z,1015.40
2018-04-22T02:34:08.616Z,1015.43
2018-04-22T02:35:08.549Z,1015.40
2018-04-22T02:36:08.490Z,1015.34
2018-04-22T02:37:08.425Z,1015.35
2018-04-22T02:38:08.368Z,1015.38
2018-04-22T02:39:08.301Z,1015.34
2018-04-22T02:40:08.235Z,1015.36
2018-04-22T02:41:08.168Z,1015.32
2018-04-22T02:42:08.112Z,1015.37
2018-04-22T02:43:08.051Z,1015.35
2018-04-22T02:44:07.983Z,1015.37
2018-04-22T02:45:07.920Z,1015.39
2018-04-22T02:46:07.858Z,1015.35
2018-04-22T02:47:07.802Z,1015.35
2018-04-22T02:48:07.730Z,1015.29
2018-04-22T02:49:07.672Z,1015.31
2018-04-22T02:50:07.615Z,1015.34
2018-04-22T02:51:07.542Z,1015.31
2018-04-22T02:52:07.477Z,1015.27
2018-04-22T02:53:07.420Z,1015.25
2018-04-22T02:54:07.351Z,1015.32
2018-04-22T02:55:07.293Z,1015.25
2018-04-22T02:56:07.230Z,1015.29
2018-04-22T02:57:07.161Z,1015.23
2018-04-22T02:58:07.099Z,1015.28
2018-04-22T02:59:07.038Z,1015.18
2018-04-22T03:00:06.971Z,1015.22
2018-04-22T03:01:06.912Z,1015.20
2018-04-22T03:02:06.851Z,1015.21
2018-04-22T03:03:06.784Z,1015.23
2018-04-22T03:04:06.723Z,1015.23
2018-04-22T03:05:06.659Z,1015.21
2018-04-22T03:06:06.591Z,1015.23
2018-04-22T03:07:06.530Z,1015.18
2018-04-22T03:08:06.471Z,1015.19
2018-04-22T03:09:06.406Z,1015.19
2018-04-22T03:10:06.344Z,1015.22
2018-04-22T03:11:06.284Z,1015.19
2018-04-22T03:12:06.212Z,1015.23
2018-04-22T03:13:06.152Z,1015.17
2018-04-22T03:14:06.091Z,1015.17
2018-04-22T03:15:06.025Z,1015.20
2018-04-22T03:16:05.959Z,1015.20
2018-04-22T03:17:05.907Z,1015.17
2018-04-22T03:18:05.830Z,1015.18
2018-04-22T03:19:05.766Z,1015.22
2018-04-22T03:20:05.714Z,1015.15
2018-04-22T03:21:05.643Z,1015.15
2018-04-22T03:22:05.583Z,1015.15
2018-04-22T03:23:05.525Z,1015.14
2018-04-22T03:24:05.458Z,1015.11
2018-04-22T03:25:05.390Z,1015.08
2018-04-22T03:26:05.326Z,1015.10
2018-04-22T03:27:05.260Z,1015.08
2018-04-22T03:28:05.200Z,1015.11
2018-04-22T03:29:05.138Z,1015.10
2018-04-22T03:30:05.075Z,1015.11
2018-04-22T03:31:05.009Z,1015.11
2018-04-22T03:32:04.947Z,1015.11
2018-04-22T03:33:04.889Z,1015.08
2018-04-22T03:34:04.820Z,1015.12
2018-04-22T03:35:04.756Z,1015.09
2018-04-22T03:36:04.693Z,1015.05
2018-04-22T03:37:04.629Z,1015.07
2018-04-22T03:38:04.566Z,1015.10
2018-04-22T03:39:04.508Z,1015.11
2018-04-22T03:40:04.441Z,1015.08
2018-04-22T03:41:04.376Z,1015.10
2018-04-22T03:42:04.335Z,1015.11
2018-04-22T03:43:04.251Z,1015.10
2018-04-22T03:44:04.185Z,1015.08
2018-04-22T03:45:04.121Z,1015.06
2018-04-22T03:46:04.060Z,1015.06
2018-04-22T03:47:03.999Z,1015.08
2018-04-22T03:48:03.933Z,1015.04
2018-04-22T03:49:03.870Z,1015.06
2018-04-22T03:50:03.806Z,1015.04
2018-04-22T03:51:03.745Z,1015.04
2018-04-22T03:52:03.679Z,1015.04
2018-04-22T03:53:03.618Z,1015.06
2018-04-22T03:54:03.553Z,1015.05
2018-04-22T03:55:03.494Z,1015.00
2018-04-22T03:56:03.425Z,1015.02
2018-04-22T03:57:03.359Z,1015.03
2018-04-22T03:58:03.299Z,1015.03
2018-04-22T03:59:03.232Z,1015.03
2018-04-22T04:00:03.175Z,1015.04
2018-04-22T04:01:03.111Z,1015.01
2018-04-22T04:02:03.045Z,1015.03
2018-04-22T04:03:02.982Z,1015.00
2018-04-22T04:04:02.919Z,1015.01
2018-04-22T04:05:02.856Z,1014.99
2018-04-22T04:06:02.794Z,1014.98
2018-04-22T04:07:02.735Z,1014.99
2018-04-22T04:08:02.662Z,1015.01
2018-04-22T04:09:02.607Z,1015.02
2018-04-22T04:10:02.536Z,1015.03
2018-04-22T04:11:02.475Z,1015.03
2018-04-22T04:12:02.410Z,1015.04
2018-04-22T04:13:02.349Z,1015.03
2018-04-22T04:14:02.283Z,1015.07
2018-04-22T04:15:02.221Z,1015.04
2018-04-22T04:16:02.154Z,1015.03
2018-04-22T04:17:02.090Z,1015.10
2018-04-22T04:18:02.034Z,1015.02
2018-04-22T04:19:01.972Z,1015.09
2018-04-22T04:20:01.898Z,1015.05
2018-04-22T04:21:01.838Z,1015.05
2018-04-22T04:22:01.779Z,1015.06
2018-04-22T04:23:01.709Z,1015.06
2018-04-22T04:24:01.650Z,1015.09
2018-04-22T04:25:01.589Z,1015.10
2018-04-22T04:26:01.527Z,1015.10
2018-04-22T04:27:01.456Z,1015.10
2018-04-22T04:28:01.395Z,1015.13
2018-04-22T04:29:01.329Z,1015.13
2018-04-22T04:30:01.277Z,1015.16
2018-04-22T04:31:01.201Z,1015.16
2018-04-22T04:32:01.148Z,1015.15
2018-04-22T04:33:01.071Z,1015.13
2018-04-22T04:34:01.010Z,1015.16
2018-04-22T04:35:00.947Z,1015.13
2018-04-22T04:36:00.887Z,1015.14
2018-04-22T04:37:00.822Z,1015.16
2018-04-22T04:38:00.763Z,1015.19
2018-04-22T04:39:00.692Z,1015.12
2018-04-22T04:40:00.633Z,1015.13
2018-04-22T04:41:00.566Z,1015.15
2018-04-22T04:42:00.501Z,1015.13
2018-04-22T04:43:00.443Z,1015.14
2018-04-22T04:44:00.379Z,1015.14
2018-04-22T04:45:00.311Z,1015.11
2018-04-22T04:46:00.254Z,1015.15
2018-04-22T04:47:00.187Z,1015.13
2018-04-22T04:48:00.116Z,1015.09
2018-04-22T04:49:00.054Z,1015.11
2018-04-22T04:49:59.997Z,1015.15
2018-04-22T04:50:59.938Z,1015.10
2018-04-22T04:51:59.863Z,1015.14
2018-04-22T04:52:59.803Z,1015.13
2018-04-22T04:53:59.742Z,1015.12
2018-04-22T04:54:59.676Z,1015.16
2018-04-22T04:55:59.614Z,1015.16
2018-04-22T04:56:59.568Z,1015.12
2018-04-22T04:57:59.487Z,1015.13
2018-04-22T04:58:59.427Z,1015.11
2018-04-22T04:59:59.365Z,1015.10
2018-04-22T05:00:59.294Z,1015.09
2018-04-22T05:01:59.231Z,1015.05
2018-04-22T05:02:59.167Z,1015.06
2018-04-22T05:03:59.107Z,1015.01
2018-04-22T05:04:59.045Z,1015.07
2018-04-22T05:05:58.977Z,1015.08
2018-04-22T05:06:58.914Z,1015.05
2018-04-22T05:07:58.852Z,1015.07
2018-04-22T05:08:58.789Z,1015.08
2018-04-22T05:09:58.731Z,1015.02
2018-04-22T05:10:58.661Z,1015.07
2018-04-22T05:11:58.597Z,1015.08
2018-04-22T05:12:58.535Z,1015.06
2018-04-22T05:13:58.469Z,1015.05
2018-04-22T05:14:58.405Z,1015.09
2018-04-22T05:15:58.349Z,1015.11
2018-04-22T05:16:58.282Z,1015.07
2018-04-22T05:17:58.220Z,1015.10
2018-04-22T05:18:58.155Z,1015.17
2018-04-22T05:19:58.089Z,1015.09
2018-04-22T05:20:58.031Z,1015.08
2018-04-22T05:21:57.964Z,1015.08
2018-04-22T05:22:57.903Z,1015.09
2018-04-22T05:23:57.880Z,1015.05
2018-04-22T05:24:57.777Z,1015.05
2018-04-22T05:25:57.710Z,1015.06
2018-04-22T05:26:57.648Z,1015.08
2018-04-22T05:27:57.584Z,1015.04
2018-04-22T05:28:57.523Z,1015.07
2018-04-22T05:29:57.457Z,1015.09
2018-04-22T05:30:57.395Z,1015.09
2018-04-22T05:31:57.330Z,1015.02
2018-04-22T05:32:57.267Z,1015.05
2018-04-22T05:33:57.202Z,1015.02
2018-04-22T05:34:57.141Z,1015.06
2018-04-22T05:35:57.079Z,1015.02
2018-04-22T05:36:57.015Z,1015.00
2018-04-22T05:37:56.950Z,1015.03
2018-04-22T05:38:56.888Z,1015.07
2018-04-22T05:39:56.825Z,1015.08
2018-04-22T05:40:56.767Z,1015.05
2018-04-22T05:41:56.702Z,1015.07
2018-04-22T05:42:56.640Z,1015.09
2018-04-22T05:43:56.568Z,1015.06
2018-04-22T05:44:56.507Z,1015.08
2018-04-22T05:45:56.446Z,1015.17
2018-04-22T05:46:56.382Z,1015.12
2018-04-22T05:47:56.320Z,1015.19
2018-04-22T05:48:56.259Z,1015.17
2018-04-22T05:49:56.195Z,1015.13
2018-04-22T05:50:56.131Z,1015.13
2018-04-22T05:51:56.065Z,1015.07
2018-04-22T05:52:56.004Z,1015.09
2018-04-22T05:53:55.943Z,1015.03
2018-04-22T05:54:55.880Z,1015.06
2018-04-22T05:55:55.815Z,1015.04
2018-04-22T05:56:55.753Z,1015.03
2018-04-22T05:57:55.689Z,1015.04
2018-04-22T05:58:55.624Z,1015.01
2018-04-22T05:59:55.567Z,1015.01
2018-04-22T06:00:55.510Z,1015.01
2018-04-22T06:01:55.443Z,1015.01
2018-04-22T06:02:55.379Z,1015.01
2018-04-22T06:03:55.314Z,1015.03
2018-04-22T06:04:55.251Z,1014.97
2018-04-22T06:05:55.189Z,1015.03
2018-04-22T06:06:55.123Z,1015.02
2018-04-22T06:07:55.071Z,1015.01
2018-04-22T06:08:54.999Z,1014.96
2018-04-22T06:09:54.936Z,1014.98
2018-04-22T06:10:54.875Z,1014.97
2018-04-22T06:11:54.821Z,1014.98
2018-04-22T06:12:54.751Z,1014.99
2018-04-22T06:13:54.695Z,1014.96
2018-04-22T06:14:54.640Z,1014.94
2018-04-22T06:15:54.567Z,1014.96
2018-04-22T06:16:54.502Z,1014.95
2018-04-22T06:17:54.458Z,1014.92
2018-04-22T06:18:54.370Z,1014.96
2018-04-22T06:19:54.313Z,1014.96
2018-04-22T06:20:54.250Z,1014.95
2018-04-22T06:21:54.186Z,1014.90
2018-04-22T06:22:54.172Z,1014.87
2018-04-22T06:23:54.062Z,1014.87
2018-04-22T06:24:54.000Z,1014.90
2018-04-22T06:25:53.944Z,1014.85
2018-04-22T06:26:53.874Z,1014.84
2018-04-22T06:27:53.813Z,1014.90
2018-04-22T06:28:53.751Z,1014.87
2018-04-22T06:29:53.691Z,1014.85
2018-04-22T06:30:53.630Z,1014.85
2018-04-22T06:31:53.572Z,1014.83
2018-04-22T06:32:53.503Z,1014.88
2018-04-22T06:33:53.445Z,1014.84
2018-04-22T06:34:53.380Z,1014.82
2018-04-22T06:35:53.316Z,1014.79
2018-04-22T06:36:53.258Z,1014.80
2018-04-22T06:37:53.194Z,1014.79
2018-04-22T06:38:53.130Z,1014.74
2018-04-22T06:39:53.074Z,1014.76
2018-04-22T06:40:53.008Z,1014.75
2018-04-22T06:41:52.945Z,1014.71
2018-04-22T06:42:52.882Z,1014.72
2018-04-22T06:43:52.825Z,1014.72
2018-04-22T06:44:52.761Z,1014.75
2018-04-22T06:45:52.700Z,1014.75
2018-04-22T06:46:52.636Z,1014.78
2018-04-22T06:47:52.571Z,1014.78
2018-04-22T06:48:52.512Z,1014.79
2018-04-22T06:49:52.452Z,1014.82
2018-04-22T06:50:52.395Z,1014.79
2018-04-22T06:51:52.329Z,1014.74
2018-04-22T06:52:52.264Z,1014.74
2018-04-22T06:53:52.216Z,1014.77
2018-04-22T06:54:52.147Z,1014.76
2018-04-22T06:55:52.079Z,1014.80
2018-04-22T06:56:52.023Z,1014.81
2018-04-22T06:57:51.960Z,1014.73
2018-04-22T06:58:51.994Z,1014.74
2018-04-22T06:59:51.838Z,1014.74
2018-04-22T07:00:51.772Z,1014.71
2018-04-22T07:01:51.711Z,1014.72
2018-04-22T07:02:51.653Z,1014.70
2018-04-22T07:03:51.590Z,1014.68
2018-04-22T07:04:51.526Z,1014.70
2018-04-22T07:05:51.467Z,1014.67
2018-04-22T07:06:51.405Z,1014.64
2018-04-22T07:07:51.344Z,1014.66
2018-04-22T07:08:51.282Z,1014.65
2018-04-22T07:09:51.218Z,1014.66
2018-04-22T07:10:51.156Z,1014.62
2018-04-22T07:11:51.101Z,1014.64
2018-04-22T07:12:51.041Z,1014.61
2018-04-22T07:13:50.976Z,1014.65
2018-04-22T07:14:50.939Z,1014.62
2018-04-22T07:15:50.856Z,1014.62
2018-04-22T07:16:50.795Z,1014.58
2018-04-22T07:17:50.732Z,1014.62
2018-04-22T07:18:50.675Z,1014.62
2018-04-22T07:19:50.610Z,1014.69
2018-04-22T07:20:50.549Z,1014.64
2018-04-22T07:21:50.489Z,1014.63
2018-04-22T07:22:50.428Z,1014.58
2018-04-22T07:23:50.376Z,1014.57
2018-04-22T07:24:50.309Z,1014.56
2018-04-22T07:25:50.247Z,1014.59
2018-04-22T07:26:50.184Z,1014.58
2018-04-22T07:27:50.123Z,1014.58
2018-04-22T07:28:50.061Z,1014.61
2018-04-22T07:29:50.005Z,1014.60
2018-04-22T07:30:49.951Z,1014.59
2018-04-22T07:31:49.879Z,1014.60
2018-04-22T07:32:49.820Z,1014.59
2018-04-22T07:33:49.769Z,1014.49
2018-04-22T07:34:49.697Z,1014.52
2018-04-22T07:35:49.640Z,1014.53
2018-04-22T07:36:49.582Z,1014.52
2018-04-22T07:37:49.534Z,1014.55
2018-04-22T07:38:49.456Z,1014.54
2018-04-22T07:39:49.398Z,1014.55
2018-04-22T07:40:49.336Z,1014.52
2018-04-22T07:41:49.276Z,1014.54
2018-04-22T07:42:49.215Z,1014.50
2018-04-22T07:43:49.161Z,1014.50
2018-04-22T07:44:49.099Z,1014.51
2018-04-22T07:45:49.035Z,1014.52
2018-04-22T07:46:48.972Z,1014.51
2018-04-22T07:47:48.913Z,1014.50
2018-04-22T07:48:48.857Z,1014.53
2018-04-22T07:49:48.795Z,1014.53
2018-04-22T07:50:48.783Z,1014.54
2018-04-22T07:51:48.671Z,1014.54
2018-04-22T07:52:48.615Z,1014.55
2018-04-22T07:53:48.557Z,1014.53
2018-04-22T07:54:48.492Z,1014.54
2018-04-22T07:55:48.436Z,1014.58
2018-04-22T07:56:48.376Z,1014.53
2018-04-22T07:57:48.329Z,1014.59
2018-04-22T07:58:48.254Z,1014.60
2018-04-22T07:59:48.205Z,1014.61
2018-04-22T08:00:48.130Z,1014.59
2018-04-22T08:01:48.078Z,1014.60
2018-04-22T08:02:48.023Z,1014.53
2018-04-22T08:03:47.949Z,1014.58
2018-04-22T08:04:47.892Z,1014.52
2018-04-22T08:05:47.828Z,1014.51
2018-04-22T08:06:47.797Z,1014.52
2018-04-22T08:07:47.717Z,1014.50
2018-04-22T08:08:47.660Z,1014.48
2018-04-22T08:09:47.594Z,1014.52
2018-04-22T08:10:47.540Z,1014.51
2018-04-22T08:11:47.470Z,1014.53
2018-04-22T08:12:47.412Z,1014.46
2018-04-22T08:13:47.391Z,1014.46
2018-04-22T08:14:47.294Z,1014.48
2018-04-22T08:15:47.237Z,1014.46
2018-04-22T08:16:47.178Z,1014.48
2018-04-22T08:17:47.118Z,1014.48
2018-04-22T08:18:47.057Z,1014.47
2018-04-22T08:19:46.998Z,1014.46
2018-04-22T08:20:46.937Z,1014.46
2018-04-22T08:21:46.881Z,1014.46
2018-04-22T08:22:46.829Z,1014.46
2018-04-22T08:23:46.762Z,1014.46
2018-04-22T08:24:46.699Z,1014.49
2018-04-22T08:25:46.642Z,1014.38
2018-04-22T08:26:46.577Z,1014.44
2018-04-22T08:27:46.522Z,1014.42
2018-04-22T08:28:46.477Z,1014.40
2018-04-22T08:29:46.404Z,1014.41
2018-04-22T08:30:46.340Z,1014.43
2018-04-22T08:31:46.280Z,1014.43
2018-04-22T08:32:46.227Z,1014.43
2018-04-22T08:33:46.166Z,1014.40
2018-04-22T08:34:46.106Z,1014.40
2018-04-22T08:35:46.043Z,1014.41
2018-04-22T08:36:45.987Z,1014.41
2018-04-22T08:37:45.926Z,1014.43
2018-04-22T08:38:45.863Z,1014.41
2018-04-22T08:39:45.807Z,1014.38
2018-04-22T08:40:45.757Z,1014.41
2018-04-22T08:41:45.693Z,1014.37
2018-04-22T08:42:45.634Z,1014.33
2018-04-22T08:43:45.570Z,1014.29
2018-04-22T08:44:45.511Z,1014.28
2018-04-22T08:45:45.452Z,1014.27
2018-04-22T08:46:45.420Z,1014.27
2018-04-22T08:47:45.368Z,1014.26
2018-04-22T08:48:45.280Z,1014.29
2018-04-22T08:49:45.217Z,1014.26
2018-04-22T08:50:45.157Z,1014.27
2018-04-22T08:51:45.107Z,1014.29
2018-04-22T08:52:45.048Z,1014.29
2018-04-22T08:53:44.979Z,1014.25
2018-04-22T08:54:44.925Z,1014.21
2018-04-22T08:55:44.926Z,1014.15
2018-04-22T08:56:44.874Z,1014.15
2018-04-22T08:57:44.745Z,1014.12
2018-04-22T08:58:44.688Z,1014.16
2018-04-22T08:59:44.635Z,1014.17
2018-04-22T09:00:44.581Z,1014.14
2018-04-22T09:01:44.508Z,1014.14
2018-04-22T09:02:44.451Z,1014.10
2018-04-22T09:03:44.393Z,1014.09
2018-04-22T09:04:44.350Z,1014.07
2018-04-22T09:05:44.274Z,1014.03
2018-04-22T09:06:44.218Z,1014.02
2018-04-22T09:07:44.169Z,1014.01
2018-04-22T09:08:44.103Z,1013.99
2018-04-22T09:09:44.039Z,1013.99
2018-04-22T09:10:43.979Z,1013.97
2018-04-22T09:11:43.931Z,1013.92
2018-04-22T09:12:44.000Z,1013.93
2018-04-22T09:13:43.807Z,1013.89
2018-04-22T09:14:43.764Z,1013.90
2018-04-22T09:15:43.692Z,1013.87
2018-04-22T09:16:43.627Z,1013.89
2018-04-22T09:17:43.605Z,1013.88
2018-04-22T09:18:43.519Z,1013.86
2018-04-22T09:19:43.453Z,1013.86
2018-04-22T09:20:43.394Z,1013.83
2018-04-22T09:21:43.329Z,1013.83
2018-04-22T09:22:43.272Z,1013.82
2018-04-22T09:23:43.223Z,1013.84
2018-04-22T09:24:43.159Z,1013.84
2018-04-22T09:25:43.109Z,1013.80
2018-04-22T09:26:43.042Z,1013.81
2018-04-22T09:27:42.980Z,1013.79
2018-04-22T09:28:42.922Z,1013.74
2018-04-22T09:29:42.866Z,1013.80
2018-04-22T09:30:42.807Z,1013.79
2018-04-22T09:31:42.760Z,1013.78
2018-04-22T09:32:42.693Z,1013.76
2018-04-22T09:33:42.633Z,1013.69
2018-04-22T09:34:42.578Z,1013.73
2018-04-22T09:35:42.511Z,1013.71
2018-04-22T09:36:42.464Z,1013.69
2018-04-22T09:37:42.403Z,1013.67
2018-04-22T09:38:42.339Z,1013.70
2018-04-22T09:39:42.282Z,1013.69
2018-04-22T09:40:42.224Z,1013.66
2018-04-22T09:41:42.195Z,1013.57
2018-04-22T09:42:42.099Z,1013.58
2018-04-22T09:43:42.060Z,1013.57
2018-04-22T09:44:41.991Z,1013.54
2018-04-22T09:45:41.933Z,1013.52
2018-04-22T09:46:41.874Z,1013.54
2018-04-22T09:47:41.811Z,1013.55
2018-04-22T09:48:41.752Z,1013.54
2018-04-22T09:49:41.698Z,1013.54
2018-04-22T09:50:41.632Z,1013.53
2018-04-22T09:51:41.581Z,1013.47
2018-04-22T09:52:41.523Z,1013.48
2018-04-22T09:53:41.462Z,1013.48
2018-04-22T09:54:41.404Z,1013.46
2018-04-22T09:55:41.385Z,1013.45
2018-04-22T09:56:41.293Z,1013.50
2018-04-22T09:57:41.232Z,1013.48
2018-04-22T09:58:41.176Z,1013.47
2018-04-22T09:59:41.112Z,1013.49
2018-04-22T10:00:41.055Z,1013.50
2018-04-22T10:01:41.000Z,1013.49
2018-04-22T10:02:40.934Z,1013.45
2018-04-22T10:03:40.880Z,1013.47
2018-04-22T10:04:40.830Z,1013.46
2018-04-22T10:05:40.762Z,1013.50
2018-04-22T10:06:40.710Z,1013.45
2018-04-22T10:07:40.645Z,1013.47
2018-04-22T10:08:40.588Z,1013.37
2018-04-22T10:09:40.534Z,1013.36
2018-04-22T10:10:40.483Z,1013.30
2018-04-22T10:11:40.408Z,1013.29
2018-04-22T10:12:40.359Z,1013.29
2018-04-22T10:13:40.300Z,1013.24
2018-04-22T10:14:40.235Z,1013.23
2018-04-22T10:15:40.184Z,1013.23
2018-04-22T10:16:40.125Z,1013.23
2018-04-22T10:17:40.068Z,1013.22
2018-04-22T10:18:40.017Z,1013.22
2018-04-22T10:19:39.946Z,1013.25
2018-04-22T10:20:39.894Z,1013.24
2018-04-22T10:21:39.835Z,1013.20
2018-04-22T10:22:39.772Z,1013.17
2018-04-22T10:23:39.728Z,1013.15
2018-04-22T10:24:39.659Z,1013.13
2018-04-22T10:25:39.690Z,1013.15
2018-04-22T10:26:39.542Z,1013.14
2018-04-22T10:27:39.525Z,1013.12
2018-04-22T10:28:39.431Z,1013.13
2018-04-22T10:29:39.373Z,1013.14
2018-04-22T10:30:39.313Z,1013.17
2018-04-22T10:31:39.251Z,1013.15
2018-04-22T10:32:39.199Z,1013.12
2018-04-22T10:33:39.139Z,1013.10
2018-04-22T10:34:39.122Z,1013.11
2018-04-22T10:35:39.052Z,1013.13
2018-04-22T10:36:38.963Z,1013.15
2018-04-22T10:37:38.905Z,1013.08
2018-04-22T10:38:38.855Z,1013.05
2018-04-22T10:39:38.790Z,1013.08
2018-04-22T10:40:38.734Z,1013.04
2018-04-22T10:41:38.676Z,1013.08
2018-04-22T10:42:38.617Z,1013.07
2018-04-22T10:43:38.559Z,1013.08
2018-04-22T10:44:38.499Z,1013.13
2018-04-22T10:45:38.461Z,1013.11
2018-04-22T10:46:38.425Z,1013.06
2018-04-22T10:47:38.331Z,1013.01
2018-04-22T10:48:38.274Z,1013.02
2018-04-22T10:49:38.217Z,1013.02
2018-04-22T10:50:38.152Z,1013.04
2018-04-22T10:51:38.098Z,1013.02
2018-04-22T10:52:38.038Z,1013.03
2018-04-22T10:53:37.985Z,1013.07
2018-04-22T10:54:37.928Z,1013.00
2018-04-22T10:55:37.867Z,1013.00
2018-04-22T10:56:37.814Z,1012.99
2018-04-22T10:57:37.757Z,1013.01
2018-04-22T10:58:37.697Z,1012.97
2018-04-22T10:59:37.642Z,1012.93
2018-04-22T11:00:37.588Z,1012.89
2018-04-22T11:01:37.529Z,1012.86
2018-04-22T11:02:37.473Z,1012.87
2018-04-22T11:03:37.416Z,1012.87
2018-04-22T11:04:37.412Z,1012.87
2018-04-22T11:05:37.302Z,1012.84
2018-04-22T11:06:37.245Z,1012.88
2018-04-22T11:07:37.191Z,1012.89
2018-04-22T11:08:37.136Z,1012.93
2018-04-22T11:09:37.080Z,1012.94
2018-04-22T11:10:37.024Z,1012.95
2018-04-22T11:11:36.974Z,1012.88
2018-04-22T11:12:36.917Z,1012.98
2018-04-22T11:13:36.863Z,1012.92
2018-04-22T11:14:36.822Z,1012.91
2018-04-22T11:15:36.753Z,1012.99
2018-04-22T11:16:36.697Z,1013.02
2018-04-22T11:17:36.644Z,1013.05
2018-04-22T11:18:36.590Z,1013.46
2018-04-22T11:19:36.542Z,1013.77
2018-04-22T11:20:36.490Z,1013.86
2018-04-22T11:21:36.437Z,1013.82
2018-04-22T11:22:36.381Z,1013.86
2018-04-22T11:23:36.329Z,1013.86
2018-04-22T11:24:36.276Z,1013.83
2018-04-22T11:25:36.228Z,1013.85
2018-04-22T11:26:36.180Z,1013.80
2018-04-22T11:27:36.133Z,1013.88
2018-04-22T11:28:36.081Z,1013.84
2018-04-22T11:29:36.020Z,1013.85
2018-04-22T11:30:35.972Z,1013.84
2018-04-22T11:31:35.925Z,1013.93
2018-04-22T11:32:35.878Z,1013.89
2018-04-22T11:33:35.817Z,1013.94
2018-04-22T11:34:35.824Z,1013.93
2018-04-22T11:35:35.718Z,1013.92
2018-04-22T11:36:35.670Z,1013.95
2018-04-22T11:37:35.620Z,1013.98
2018-04-22T11:38:35.573Z,1013.91
2018-04-22T11:39:35.525Z,1013.91
2018-04-22T11:40:35.479Z,1013.82
2018-04-22T11:41:35.429Z,1013.84
2018-04-22T11:42:35.380Z,1013.82
2018-04-22T11:43:35.332Z,1013.78
2018-04-22T11:44:35.283Z,1013.74
2018-04-22T11:45:35.238Z,1013.77
2018-04-22T11:46:35.189Z,1013.74
2018-04-22T11:47:35.152Z,1013.83
2018-04-22T11:48:35.097Z,1013.77
2018-04-22T11:49:35.049Z,1013.69
2018-04-22T11:50:35.001Z,1013.77
2018-04-22T11:51:34.963Z,1013.80
2018-04-22T11:52:34.914Z,1013.68
2018-04-22T11:53:34.926Z,1013.76
2018-04-22T11:54:34.824Z,1013.57
2018-04-22T11:55:34.769Z,1013.81
2018-04-22T11:56:34.727Z,1013.76
2018-04-22T11:57:34.681Z,1013.71
2018-04-22T11:58:34.644Z,1013.70
2018-04-22T11:59:34.591Z,1013.67
2018-04-22T12:00:34.547Z,1013.67
2018-04-22T12:01:34.512Z,1013.78
2018-04-22T12:02:34.452Z,1013.77
2018-04-22T12:03:34.411Z,1013.73
2018-04-22T12:04:34.370Z,1013.57